< < Back
Terminal Aerodrome Forecast


Current Version              Previous Versions:   1  2  3  4  5  6  7  8  9  

Terminal Aerodrome Forecast

714
FTUS44 KBMX 260520
TAFTCL
TAF
KTCL 260520Z 2606/2706 17002KT P6SM SCT250
     FM261300 17008KT P6SM FEW250=

Latest METAR

252
SAUS70 KWBC 270200 RRG
MTRTCL
METAR KTCL 270153Z AUTO 14005KT 10SM CLR 27/16 A3002 RMK AO2 SLP162
T02720161


USA.gov is the U.S. government's official web portal to all federal, state and local government web resources and services.